sensor_id;sensor_type;location;lat;lon;timestamp;P1;durP1;ratioP1;P2;durP2;ratioP2
8737;SDS011;4405;49.272;8.590;2023-07-13T00:02:06;3.37;;;1.97;;
8737;SDS011;4405;49.272;8.590;2023-07-13T00:04:32;2.30;;;1.80;;
8737;SDS011;4405;49.272;8.590;2023-07-13T00:07:00;2.20;;;2.00;;
8737;SDS011;4405;49.272;8.590;2023-07-13T00:09:26;2.07;;;1.97;;
8737;SDS011;4405;49.272;8.590;2023-07-13T00:11:54;2.13;;;1.70;;
8737;SDS011;4405;49.272;8.590;2023-07-13T00:14:22;3.20;;;1.83;;
8737;SDS011;4405;49.272;8.590;2023-07-13T00:16:48;2.50;;;1.73;;
8737;SDS011;4405;49.272;8.590;2023-07-13T00:19:14;3.70;;;1.50;;
8737;SDS011;4405;49.272;8.590;2023-07-13T00:21:41;2.23;;;1.50;;
8737;SDS011;4405;49.272;8.590;2023-07-13T00:24:10;1.60;;;1.50;;
8737;SDS011;4405;49.272;8.590;2023-07-13T00:26:37;3.53;;;1.30;;
8737;SDS011;4405;49.272;8.590;2023-07-13T00:29:04;1.60;;;1.50;;
8737;SDS011;4405;49.272;8.590;2023-07-13T00:31:31;6.17;;;1.57;;
8737;SDS011;4405;49.272;8.590;2023-07-13T00:33:57;1.77;;;1.43;;
8737;SDS011;4405;49.272;8.590;2023-07-13T00:36:25;1.80;;;1.63;;
8737;SDS011;4405;49.272;8.590;2023-07-13T00:38:51;3.63;;;1.70;;
8737;SDS011;4405;49.272;8.590;2023-07-13T00:41:19;2.83;;;1.60;;
8737;SDS011;4405;49.272;8.590;2023-07-13T00:43:45;2.00;;;1.77;;
8737;SDS011;4405;49.272;8.590;2023-07-13T00:48:57;1.30;;;1.30;;
8737;SDS011;4405;49.272;8.590;2023-07-13T00:51:26;2.73;;;1.70;;
8737;SDS011;4405;49.272;8.590;2023-07-13T00:53:53;3.17;;;1.67;;
8737;SDS011;4405;49.272;8.590;2023-07-13T00:56:22;1.40;;;1.30;;
8737;SDS011;4405;49.272;8.590;2023-07-13T00:58:48;2.67;;;1.40;;
8737;SDS011;4405;49.272;8.590;2023-07-13T01:01:15;1.70;;;1.60;;
8737;SDS011;4405;49.272;8.590;2023-07-13T01:03:43;2.10;;;1.50;;
8737;SDS011;4405;49.272;8.590;2023-07-13T01:06:09;1.90;;;1.70;;
8737;SDS011;4405;49.272;8.590;2023-07-13T01:08:35;2.50;;;1.70;;
8737;SDS011;4405;49.272;8.590;2023-07-13T01:11:02;1.80;;;1.60;;
8737;SDS011;4405;49.272;8.590;2023-07-13T01:13:29;3.77;;;1.90;;
8737;SDS011;4405;49.272;8.590;2023-07-13T01:15:56;2.13;;;1.60;;
8737;SDS011;4405;49.272;8.590;2023-07-13T01:18:25;2.07;;;1.87;;
8737;SDS011;4405;49.272;8.590;2023-07-13T01:20:54;2.63;;;1.43;;
8737;SDS011;4405;49.272;8.590;2023-07-13T01:23:21;3.77;;;1.73;;
8737;SDS011;4405;49.272;8.590;2023-07-13T01:25:47;1.73;;;1.63;;
8737;SDS011;4405;49.272;8.590;2023-07-13T01:28:14;2.50;;;1.60;;
8737;SDS011;4405;49.272;8.590;2023-07-13T01:30:45;1.80;;;1.70;;
8737;SDS011;4405;49.272;8.590;2023-07-13T01:33:11;1.70;;;1.60;;
8737;SDS011;4405;49.272;8.590;2023-07-13T01:35:38;2.53;;;1.70;;
8737;SDS011;4405;49.272;8.590;2023-07-13T01:38:06;2.10;;;1.70;;
8737;SDS011;4405;49.272;8.590;2023-07-13T01:40:33;4.37;;;1.90;;
8737;SDS011;4405;49.272;8.590;2023-07-13T01:43:00;2.50;;;2.00;;
8737;SDS011;4405;49.272;8.590;2023-07-13T01:45:26;6.97;;;2.17;;
8737;SDS011;4405;49.272;8.590;2023-07-13T01:47:52;2.17;;;1.80;;
8737;SDS011;4405;49.272;8.590;2023-07-13T01:50:19;2.77;;;1.77;;
8737;SDS011;4405;49.272;8.590;2023-07-13T01:52:46;1.73;;;1.63;;
8737;SDS011;4405;49.272;8.590;2023-07-13T01:55:13;2.10;;;2.00;;
8737;SDS011;4405;49.272;8.590;2023-07-13T01:57:40;4.07;;;1.90;;
8737;SDS011;4405;49.272;8.590;2023-07-13T02:00:10;2.67;;;1.70;;
8737;SDS011;4405;49.272;8.590;2023-07-13T02:02:37;2.00;;;1.90;;
8737;SDS011;4405;49.272;8.590;2023-07-13T02:05:04;2.93;;;1.73;;
8737;SDS011;4405;49.272;8.590;2023-07-13T02:07:30;2.00;;;1.60;;
8737;SDS011;4405;49.272;8.590;2023-07-13T02:09:56;2.33;;;1.70;;
8737;SDS011;4405;49.272;8.590;2023-07-13T02:12:24;2.33;;;1.70;;
8737;SDS011;4405;49.272;8.590;2023-07-13T02:14:50;1.97;;;1.63;;
8737;SDS011;4405;49.272;8.590;2023-07-13T02:17:17;2.20;;;1.80;;
8737;SDS011;4405;49.272;8.590;2023-07-13T02:19:43;2.43;;;1.60;;
8737;SDS011;4405;49.272;8.590;2023-07-13T02:22:09;2.17;;;1.97;;
8737;SDS011;4405;49.272;8.590;2023-07-13T02:24:36;5.17;;;2.17;;
8737;SDS011;4405;49.272;8.590;2023-07-13T02:27:03;3.13;;;2.00;;
8737;SDS011;4405;49.272;8.590;2023-07-13T02:29:31;2.10;;;2.00;;
8737;SDS011;4405;49.272;8.590;2023-07-13T02:31:57;2.33;;;1.97;;
8737;SDS011;4405;49.272;8.590;2023-07-13T02:34:23;2.13;;;2.00;;
8737;SDS011;4405;49.272;8.590;2023-07-13T02:36:50;3.27;;;2.23;;
8737;SDS011;4405;49.272;8.590;2023-07-13T02:39:16;2.03;;;1.93;;
8737;SDS011;4405;49.272;8.590;2023-07-13T02:41:42;3.20;;;1.90;;
8737;SDS011;4405;49.272;8.590;2023-07-13T02:44:09;2.63;;;1.80;;
8737;SDS011;4405;49.272;8.590;2023-07-13T02:46:37;2.00;;;1.90;;
8737;SDS011;4405;49.272;8.590;2023-07-13T02:49:03;2.30;;;1.97;;
8737;SDS011;4405;49.272;8.590;2023-07-13T02:51:30;3.00;;;1.90;;
8737;SDS011;4405;49.272;8.590;2023-07-13T02:53:58;2.63;;;1.90;;
8737;SDS011;4405;49.272;8.590;2023-07-13T02:56:25;2.33;;;2.17;;
8737;SDS011;4405;49.272;8.590;2023-07-13T02:58:52;4.07;;;2.43;;
8737;SDS011;4405;49.272;8.590;2023-07-13T03:01:19;2.90;;;2.00;;
8737;SDS011;4405;49.272;8.590;2023-07-13T03:03:48;3.30;;;2.20;;
8737;SDS011;4405;49.272;8.590;2023-07-13T03:06:15;2.43;;;2.10;;
8737;SDS011;4405;49.272;8.590;2023-07-13T03:08:41;2.20;;;2.10;;
8737;SDS011;4405;49.272;8.590;2023-07-13T03:11:08;4.43;;;2.30;;
8737;SDS011;4405;49.272;8.590;2023-07-13T03:13:36;6.10;;;2.13;;
8737;SDS011;4405;49.272;8.590;2023-07-13T03:16:02;4.10;;;2.10;;
8737;SDS011;4405;49.272;8.590;2023-07-13T03:18:29;4.87;;;1.83;;
8737;SDS011;4405;49.272;8.590;2023-07-13T03:20:57;2.30;;;1.90;;
8737;SDS011;4405;49.272;8.590;2023-07-13T03:23:23;2.10;;;2.00;;
8737;SDS011;4405;49.272;8.590;2023-07-13T03:25:50;2.33;;;2.17;;
8737;SDS011;4405;49.272;8.590;2023-07-13T03:28:16;2.73;;;1.93;;
8737;SDS011;4405;49.272;8.590;2023-07-13T03:30:43;2.23;;;2.13;;
8737;SDS011;4405;49.272;8.590;2023-07-13T03:33:09;2.20;;;2.10;;
8737;SDS011;4405;49.272;8.590;2023-07-13T03:35:35;2.10;;;2.00;;
8737;SDS011;4405;49.272;8.590;2023-07-13T03:38:07;2.47;;;2.27;;
8737;SDS011;4405;49.272;8.590;2023-07-13T03:40:33;2.73;;;2.37;;
8737;SDS011;4405;49.272;8.590;2023-07-13T03:43:00;2.47;;;2.03;;
8737;SDS011;4405;49.272;8.590;2023-07-13T03:45:27;2.50;;;2.30;;
8737;SDS011;4405;49.272;8.590;2023-07-13T03:47:53;2.40;;;2.20;;
8737;SDS011;4405;49.272;8.590;2023-07-13T03:50:20;2.47;;;2.30;;
8737;SDS011;4405;49.272;8.590;2023-07-13T03:52:46;3.37;;;2.13;;
8737;SDS011;4405;49.272;8.590;2023-07-13T03:55:14;2.70;;;2.50;;
8737;SDS011;4405;49.272;8.590;2023-07-13T03:57:41;2.37;;;2.17;;
8737;SDS011;4405;49.272;8.590;2023-07-13T04:00:07;2.20;;;1.97;;
8737;SDS011;4405;49.272;8.590;2023-07-13T04:02:35;2.10;;;2.00;;
8737;SDS011;4405;49.272;8.590;2023-07-13T04:05:02;2.20;;;2.10;;
8737;SDS011;4405;49.272;8.590;2023-07-13T04:07:29;3.17;;;2.23;;
8737;SDS011;4405;49.272;8.590;2023-07-13T04:09:55;2.10;;;2.00;;
8737;SDS011;4405;49.272;8.590;2023-07-13T04:12:23;1.90;;;1.80;;
8737;SDS011;4405;49.272;8.590;2023-07-13T04:14:49;3.03;;;2.07;;
8737;SDS011;4405;49.272;8.590;2023-07-13T04:17:15;2.17;;;2.07;;
8737;SDS011;4405;49.272;8.590;2023-07-13T04:19:42;2.33;;;2.10;;
8737;SDS011;4405;49.272;8.590;2023-07-13T04:22:08;4.33;;;2.03;;
8737;SDS011;4405;49.272;8.590;2023-07-13T04:24:34;6.03;;;2.50;;
8737;SDS011;4405;49.272;8.590;2023-07-13T04:27:01;2.50;;;2.30;;
8737;SDS011;4405;49.272;8.590;2023-07-13T04:29:29;2.80;;;2.30;;
8737;SDS011;4405;49.272;8.590;2023-07-13T04:31:55;2.60;;;2.20;;
8737;SDS011;4405;49.272;8.590;2023-07-13T04:34:22;3.17;;;2.30;;
8737;SDS011;4405;49.272;8.590;2023-07-13T04:36:49;2.67;;;2.27;;
8737;SDS011;4405;49.272;8.590;2023-07-13T04:39:15;1.90;;;1.80;;
8737;SDS011;4405;49.272;8.590;2023-07-13T04:41:42;2.10;;;2.00;;
8737;SDS011;4405;49.272;8.590;2023-07-13T04:44:08;2.50;;;2.30;;
8737;SDS011;4405;49.272;8.590;2023-07-13T04:46:36;2.30;;;2.20;;
8737;SDS011;4405;49.272;8.590;2023-07-13T04:49:03;2.37;;;2.20;;
8737;SDS011;4405;49.272;8.590;2023-07-13T04:51:29;5.43;;;2.20;;
8737;SDS011;4405;49.272;8.590;2023-07-13T04:53:56;4.80;;;2.17;;
8737;SDS011;4405;49.272;8.590;2023-07-13T04:56:22;3.50;;;2.33;;
8737;SDS011;4405;49.272;8.590;2023-07-13T04:58:49;2.50;;;2.30;;
8737;SDS011;4405;49.272;8.590;2023-07-13T05:01:15;4.07;;;2.40;;
8737;SDS011;4405;49.272;8.590;2023-07-13T05:03:43;5.57;;;2.40;;
8737;SDS011;4405;49.272;8.590;2023-07-13T05:06:09;3.87;;;2.63;;
8737;SDS011;4405;49.272;8.590;2023-07-13T05:08:36;2.97;;;2.20;;
8737;SDS011;4405;49.272;8.590;2023-07-13T05:11:02;2.50;;;2.20;;
8737;SDS011;4405;49.272;8.590;2023-07-13T05:13:29;2.97;;;2.17;;
8737;SDS011;4405;49.272;8.590;2023-07-13T05:15:56;4.60;;;2.57;;
8737;SDS011;4405;49.272;8.590;2023-07-13T05:18:23;2.30;;;2.13;;
8737;SDS011;4405;49.272;8.590;2023-07-13T05:20:56;2.80;;;2.27;;
8737;SDS011;4405;49.272;8.590;2023-07-13T05:23:23;5.97;;;2.40;;
8737;SDS011;4405;49.272;8.590;2023-07-13T05:25:49;3.93;;;1.90;;
8737;SDS011;4405;49.272;8.590;2023-07-13T05:28:15;6.23;;;2.27;;
8737;SDS011;4405;49.272;8.590;2023-07-13T05:30:44;6.30;;;2.10;;
8737;SDS011;4405;49.272;8.590;2023-07-13T05:33:11;3.30;;;2.20;;
8737;SDS011;4405;49.272;8.590;2023-07-13T05:35:37;2.40;;;2.20;;
8737;SDS011;4405;49.272;8.590;2023-07-13T05:38:05;4.70;;;2.23;;
8737;SDS011;4405;49.272;8.590;2023-07-13T05:40:31;4.87;;;2.30;;
8737;SDS011;4405;49.272;8.590;2023-07-13T05:42:57;2.60;;;1.97;;
8737;SDS011;4405;49.272;8.590;2023-07-13T05:45:24;2.63;;;2.30;;
8737;SDS011;4405;49.272;8.590;2023-07-13T05:47:51;3.97;;;2.00;;
8737;SDS011;4405;49.272;8.590;2023-07-13T05:50:17;1.77;;;1.70;;
8737;SDS011;4405;49.272;8.590;2023-07-13T05:52:43;2.20;;;1.90;;
8737;SDS011;4405;49.272;8.590;2023-07-13T05:55:11;2.57;;;2.10;;
8737;SDS011;4405;49.272;8.590;2023-07-13T05:57:37;4.17;;;2.43;;
8737;SDS011;4405;49.272;8.590;2023-07-13T06:00:04;2.50;;;1.97;;
8737;SDS011;4405;49.272;8.590;2023-07-13T06:02:31;2.67;;;1.93;;
8737;SDS011;4405;49.272;8.590;2023-07-13T06:04:57;2.57;;;1.83;;
8737;SDS011;4405;49.272;8.590;2023-07-13T06:07:24;2.07;;;1.90;;
8737;SDS011;4405;49.272;8.590;2023-07-13T06:09:50;2.93;;;2.17;;
8737;SDS011;4405;49.272;8.590;2023-07-13T06:12:17;2.00;;;1.73;;
8737;SDS011;4405;49.272;8.590;2023-07-13T06:14:44;3.90;;;2.30;;
8737;SDS011;4405;49.272;8.590;2023-07-13T06:17:10;2.00;;;1.90;;
8737;SDS011;4405;49.272;8.590;2023-07-13T06:19:36;5.07;;;2.00;;
8737;SDS011;4405;49.272;8.590;2023-07-13T06:22:03;4.17;;;2.00;;
8737;SDS011;4405;49.272;8.590;2023-07-13T06:24:29;3.10;;;1.90;;
8737;SDS011;4405;49.272;8.590;2023-07-13T06:26:56;2.30;;;1.90;;
8737;SDS011;4405;49.272;8.590;2023-07-13T06:29:23;3.63;;;2.00;;
8737;SDS011;4405;49.272;8.590;2023-07-13T06:31:50;2.03;;;1.80;;
8737;SDS011;4405;49.272;8.590;2023-07-13T06:34:16;4.37;;;2.00;;
8737;SDS011;4405;49.272;8.590;2023-07-13T06:36:43;2.20;;;2.00;;
8737;SDS011;4405;49.272;8.590;2023-07-13T06:39:09;1.93;;;1.73;;
8737;SDS011;4405;49.272;8.590;2023-07-13T06:41:36;2.97;;;1.90;;
8737;SDS011;4405;49.272;8.590;2023-07-13T06:44:04;1.90;;;1.70;;
8737;SDS011;4405;49.272;8.590;2023-07-13T06:46:31;3.10;;;2.10;;
8737;SDS011;4405;49.272;8.590;2023-07-13T06:48:58;2.23;;;1.77;;
8737;SDS011;4405;49.272;8.590;2023-07-13T06:51:24;2.13;;;1.80;;
8737;SDS011;4405;49.272;8.590;2023-07-13T06:53:51;4.37;;;1.70;;
8737;SDS011;4405;49.272;8.590;2023-07-13T06:56:17;4.67;;;1.90;;
8737;SDS011;4405;49.272;8.590;2023-07-13T06:58:43;1.80;;;1.70;;
8737;SDS011;4405;49.272;8.590;2023-07-13T07:01:10;1.80;;;1.70;;
8737;SDS011;4405;49.272;8.590;2023-07-13T07:03:37;2.63;;;1.80;;
8737;SDS011;4405;49.272;8.590;2023-07-13T07:06:08;3.43;;;1.83;;
8737;SDS011;4405;49.272;8.590;2023-07-13T07:08:37;4.00;;;2.00;;
8737;SDS011;4405;49.272;8.590;2023-07-13T07:11:04;2.23;;;2.00;;
8737;SDS011;4405;49.272;8.590;2023-07-13T07:13:30;1.80;;;1.70;;
8737;SDS011;4405;49.272;8.590;2023-07-13T07:15:56;2.50;;;1.80;;
8737;SDS011;4405;49.272;8.590;2023-07-13T07:18:25;3.10;;;2.00;;
8737;SDS011;4405;49.272;8.590;2023-07-13T07:20:52;1.97;;;1.87;;
8737;SDS011;4405;49.272;8.590;2023-07-13T07:23:19;4.27;;;2.00;;
8737;SDS011;4405;49.272;8.590;2023-07-13T07:25:45;4.83;;;1.97;;
8737;SDS011;4405;49.272;8.590;2023-07-13T07:28:12;4.00;;;1.93;;
8737;SDS011;4405;49.272;8.590;2023-07-13T07:30:41;4.17;;;1.97;;
8737;SDS011;4405;49.272;8.590;2023-07-13T07:33:07;3.67;;;1.90;;
8737;SDS011;4405;49.272;8.590;2023-07-13T07:35:34;2.37;;;2.00;;
8737;SDS011;4405;49.272;8.590;2023-07-13T07:38:01;5.73;;;2.13;;
8737;SDS011;4405;49.272;8.590;2023-07-13T07:40:28;3.93;;;2.20;;
8737;SDS011;4405;49.272;8.590;2023-07-13T07:42:54;1.87;;;1.77;;
8737;SDS011;4405;49.272;8.590;2023-07-13T07:45:21;2.50;;;1.73;;
8737;SDS011;4405;49.272;8.590;2023-07-13T07:47:47;2.30;;;2.10;;
8737;SDS011;4405;49.272;8.590;2023-07-13T07:50:14;2.43;;;1.90;;
8737;SDS011;4405;49.272;8.590;2023-07-13T07:52:40;4.67;;;1.87;;
8737;SDS011;4405;49.272;8.590;2023-07-13T07:55:08;2.23;;;1.80;;
8737;SDS011;4405;49.272;8.590;2023-07-13T07:57:35;2.00;;;1.60;;
8737;SDS011;4405;49.272;8.590;2023-07-13T08:00:01;2.93;;;2.00;;
8737;SDS011;4405;49.272;8.590;2023-07-13T08:02:27;4.50;;;1.87;;
8737;SDS011;4405;49.272;8.590;2023-07-13T08:04:54;2.47;;;1.90;;
8737;SDS011;4405;49.272;8.590;2023-07-13T08:07:20;1.90;;;1.57;;
8737;SDS011;4405;49.272;8.590;2023-07-13T08:09:46;2.30;;;1.57;;
8737;SDS011;4405;49.272;8.590;2023-07-13T08:12:14;3.37;;;1.60;;
8737;SDS011;4405;49.272;8.590;2023-07-13T08:14:40;1.70;;;1.60;;
8737;SDS011;4405;49.272;8.590;2023-07-13T08:17:07;2.77;;;1.83;;
8737;SDS011;4405;49.272;8.590;2023-07-13T08:19:33;1.83;;;1.70;;
8737;SDS011;4405;49.272;8.590;2023-07-13T08:21:59;2.37;;;1.70;;
8737;SDS011;4405;49.272;8.590;2023-07-13T08:24:26;6.87;;;1.87;;
8737;SDS011;4405;49.272;8.590;2023-07-13T08:26:52;4.27;;;1.80;;
8737;SDS011;4405;49.272;8.590;2023-07-13T08:29:20;2.13;;;1.50;;
8737;SDS011;4405;49.272;8.590;2023-07-13T08:31:46;1.57;;;1.47;;
8737;SDS011;4405;49.272;8.590;2023-07-13T08:34:13;4.73;;;1.90;;
8737;SDS011;4405;49.272;8.590;2023-07-13T08:36:39;5.33;;;1.90;;
8737;SDS011;4405;49.272;8.590;2023-07-13T08:39:06;3.17;;;1.70;;
8737;SDS011;4405;49.272;8.590;2023-07-13T08:41:32;2.17;;;1.97;;
8737;SDS011;4405;49.272;8.590;2023-07-13T08:43:59;2.47;;;1.80;;
8737;SDS011;4405;49.272;8.590;2023-07-13T08:46:31;1.90;;;1.80;;
8737;SDS011;4405;49.272;8.590;2023-07-13T08:49:00;2.13;;;1.60;;
8737;SDS011;4405;49.272;8.590;2023-07-13T08:51:30;4.57;;;1.70;;
8737;SDS011;4405;49.272;8.590;2023-07-13T08:54:00;2.90;;;1.70;;
8737;SDS011;4405;49.272;8.590;2023-07-13T08:56:28;2.53;;;1.60;;
8737;SDS011;4405;49.272;8.590;2023-07-13T08:58:56;2.13;;;1.80;;
8737;SDS011;4405;49.272;8.590;2023-07-13T09:01:23;2.40;;;1.60;;
8737;SDS011;4405;49.272;8.590;2023-07-13T09:03:53;4.37;;;1.70;;
8737;SDS011;4405;49.272;8.590;2023-07-13T09:06:25;3.20;;;1.50;;
8737;SDS011;4405;49.272;8.590;2023-07-13T09:08:56;3.20;;;1.50;;
8737;SDS011;4405;49.272;8.590;2023-07-13T09:11:28;4.90;;;1.73;;
8737;SDS011;4405;49.272;8.590;2023-07-13T09:14:01;3.00;;;1.80;;
8737;SDS011;4405;49.272;8.590;2023-07-13T09:16:30;4.90;;;1.80;;
8737;SDS011;4405;49.272;8.590;2023-07-13T09:19:00;2.93;;;1.60;;
8737;SDS011;4405;49.272;8.590;2023-07-13T09:21:28;2.63;;;1.70;;
8737;SDS011;4405;49.272;8.590;2023-07-13T09:23:56;3.30;;;1.53;;
8737;SDS011;4405;49.272;8.590;2023-07-13T09:26:25;4.67;;;1.70;;
8737;SDS011;4405;49.272;8.590;2023-07-13T09:28:54;5.80;;;1.57;;
8737;SDS011;4405;49.272;8.590;2023-07-13T09:31:23;7.47;;;1.87;;
8737;SDS011;4405;49.272;8.590;2023-07-13T09:33:50;2.40;;;1.60;;
8737;SDS011;4405;49.272;8.590;2023-07-13T09:36:19;3.07;;;1.70;;
8737;SDS011;4405;49.272;8.590;2023-07-13T09:38:48;2.17;;;1.50;;
8737;SDS011;4405;49.272;8.590;2023-07-13T09:41:19;1.60;;;1.50;;
8737;SDS011;4405;49.272;8.590;2023-07-13T09:46:34;2.10;;;1.40;;
8737;SDS011;4405;49.272;8.590;2023-07-13T09:49:00;4.30;;;1.67;;
8737;SDS011;4405;49.272;8.590;2023-07-13T09:51:28;5.20;;;1.90;;
8737;SDS011;4405;49.272;8.590;2023-07-13T09:53:54;2.67;;;1.40;;
8737;SDS011;4405;49.272;8.590;2023-07-13T09:56:22;5.70;;;1.70;;
8737;SDS011;4405;49.272;8.590;2023-07-13T09:58:49;3.57;;;1.40;;
8737;SDS011;4405;49.272;8.590;2023-07-13T10:01:15;4.13;;;1.60;;
8737;SDS011;4405;49.272;8.590;2023-07-13T10:03:51;2.43;;;1.80;;
8737;SDS011;4405;49.272;8.590;2023-07-13T10:06:19;1.33;;;1.30;;
8737;SDS011;4405;49.272;8.590;2023-07-13T10:08:48;1.77;;;1.67;;
8737;SDS011;4405;49.272;8.590;2023-07-13T10:11:17;2.93;;;1.60;;
8737;SDS011;4405;49.272;8.590;2023-07-13T10:13:44;2.13;;;1.93;;
8737;SDS011;4405;49.272;8.590;2023-07-13T10:16:11;2.90;;;1.50;;
8737;SDS011;4405;49.272;8.590;2023-07-13T10:18:39;2.67;;;1.50;;
8737;SDS011;4405;49.272;8.590;2023-07-13T10:21:11;3.47;;;1.60;;
8737;SDS011;4405;49.272;8.590;2023-07-13T10:23:38;1.80;;;1.70;;
8737;SDS011;4405;49.272;8.590;2023-07-13T10:26:07;6.00;;;1.73;;
8737;SDS011;4405;49.272;8.590;2023-07-13T10:28:36;2.13;;;1.67;;
8737;SDS011;4405;49.272;8.590;2023-07-13T10:31:02;3.23;;;1.73;;
8737;SDS011;4405;49.272;8.590;2023-07-13T10:33:31;2.70;;;1.67;;
8737;SDS011;4405;49.272;8.590;2023-07-13T10:36:00;3.53;;;1.67;;
8737;SDS011;4405;49.272;8.590;2023-07-13T10:38:27;2.57;;;1.70;;
8737;SDS011;4405;49.272;8.590;2023-07-13T10:40:56;1.60;;;1.50;;
8737;SDS011;4405;49.272;8.590;2023-07-13T10:43:25;2.60;;;1.50;;
8737;SDS011;4405;49.272;8.590;2023-07-13T10:45:53;3.60;;;1.60;;
8737;SDS011;4405;49.272;8.590;2023-07-13T10:48:20;2.83;;;1.50;;
8737;SDS011;4405;49.272;8.590;2023-07-13T10:50:48;6.63;;;2.00;;
8737;SDS011;4405;49.272;8.590;2023-07-13T10:53:17;2.10;;;1.57;;
8737;SDS011;4405;49.272;8.590;2023-07-13T10:55:54;1.30;;;1.30;;
8737;SDS011;4405;49.272;8.590;2023-07-13T10:58:21;4.43;;;1.30;;
8737;SDS011;4405;49.272;8.590;2023-07-13T11:00:51;1.97;;;1.40;;
8737;SDS011;4405;49.272;8.590;2023-07-13T11:03:20;4.97;;;1.70;;
8737;SDS011;4405;49.272;8.590;2023-07-13T11:05:50;4.20;;;1.70;;
8737;SDS011;4405;49.272;8.590;2023-07-13T11:08:19;2.87;;;1.60;;
8737;SDS011;4405;49.272;8.590;2023-07-13T11:10:51;1.63;;;1.53;;
8737;SDS011;4405;49.272;8.590;2023-07-13T11:13:35;5.70;;;1.80;;
8737;SDS011;4405;49.272;8.590;2023-07-13T11:16:07;2.27;;;1.67;;
8737;SDS011;4405;49.272;8.590;2023-07-13T11:18:38;1.70;;;1.60;;
8737;SDS011;4405;49.272;8.590;2023-07-13T11:21:14;1.93;;;1.33;;
8737;SDS011;4405;49.272;8.590;2023-07-13T11:23:42;2.60;;;1.50;;
8737;SDS011;4405;49.272;8.590;2023-07-13T11:28:51;2.97;;;1.43;;
8737;SDS011;4405;49.272;8.590;2023-07-13T11:31:18;2.23;;;1.63;;
8737;SDS011;4405;49.272;8.590;2023-07-13T11:33:52;3.63;;;1.50;;
8737;SDS011;4405;49.272;8.590;2023-07-13T11:36:19;6.10;;;1.77;;
8737;SDS011;4405;49.272;8.590;2023-07-13T11:38:57;2.87;;;1.50;;
8737;SDS011;4405;49.272;8.590;2023-07-13T11:41:26;2.53;;;1.50;;
8737;SDS011;4405;49.272;8.590;2023-07-13T11:43:54;4.77;;;1.60;;
8737;SDS011;4405;49.272;8.590;2023-07-13T11:46:22;1.60;;;1.50;;
8737;SDS011;4405;49.272;8.590;2023-07-13T11:48:49;2.57;;;1.67;;
8737;SDS011;4405;49.272;8.590;2023-07-13T11:51:18;1.70;;;1.33;;
8737;SDS011;4405;49.272;8.590;2023-07-13T11:53:46;1.50;;;1.40;;
8737;SDS011;4405;49.272;8.590;2023-07-13T11:56:13;2.47;;;1.70;;
8737;SDS011;4405;49.272;8.590;2023-07-13T11:58:40;5.60;;;1.67;;
8737;SDS011;4405;49.272;8.590;2023-07-13T12:01:10;2.50;;;1.50;;
8737;SDS011;4405;49.272;8.590;2023-07-13T12:03:42;1.97;;;1.30;;
8737;SDS011;4405;49.272;8.590;2023-07-13T12:06:19;1.43;;;1.33;;
8737;SDS011;4405;49.272;8.590;2023-07-13T12:08:47;1.97;;;1.87;;
8737;SDS011;4405;49.272;8.590;2023-07-13T12:11:15;1.63;;;1.47;;
8737;SDS011;4405;49.272;8.590;2023-07-13T12:13:43;3.23;;;1.83;;
8737;SDS011;4405;49.272;8.590;2023-07-13T12:16:14;1.97;;;1.70;;
8737;SDS011;4405;49.272;8.590;2023-07-13T12:18:42;1.90;;;1.40;;
8737;SDS011;4405;49.272;8.590;2023-07-13T12:21:12;2.93;;;1.47;;
8737;SDS011;4405;49.272;8.590;2023-07-13T12:23:39;6.83;;;1.70;;
8737;SDS011;4405;49.272;8.590;2023-07-13T12:26:06;3.07;;;1.70;;
8737;SDS011;4405;49.272;8.590;2023-07-13T12:28:35;2.07;;;1.40;;
8737;SDS011;4405;49.272;8.590;2023-07-13T12:31:02;2.80;;;1.53;;
8737;SDS011;4405;49.272;8.590;2023-07-13T12:33:29;5.27;;;1.60;;
8737;SDS011;4405;49.272;8.590;2023-07-13T12:35:59;2.03;;;1.20;;
8737;SDS011;4405;49.272;8.590;2023-07-13T12:38:26;1.53;;;1.40;;
8737;SDS011;4405;49.272;8.590;2023-07-13T12:40:53;4.23;;;1.60;;
8737;SDS011;4405;49.272;8.590;2023-07-13T12:43:20;1.87;;;1.50;;
8737;SDS011;4405;49.272;8.590;2023-07-13T12:45:56;2.53;;;1.60;;
8737;SDS011;4405;49.272;8.590;2023-07-13T12:48:22;2.47;;;1.37;;
8737;SDS011;4405;49.272;8.590;2023-07-13T12:50:49;1.93;;;1.57;;
8737;SDS011;4405;49.272;8.590;2023-07-13T12:53:18;1.47;;;1.30;;
8737;SDS011;4405;49.272;8.590;2023-07-13T12:55:47;2.90;;;1.80;;
8737;SDS011;4405;49.272;8.590;2023-07-13T12:58:16;1.60;;;1.50;;
8737;SDS011;4405;49.272;8.590;2023-07-13T13:00:47;1.67;;;1.50;;
8737;SDS011;4405;49.272;8.590;2023-07-13T13:03:16;1.83;;;1.30;;
8737;SDS011;4405;49.272;8.590;2023-07-13T13:05:46;4.07;;;1.50;;
8737;SDS011;4405;49.272;8.590;2023-07-13T13:08:12;1.47;;;1.30;;
8737;SDS011;4405;49.272;8.590;2023-07-13T13:10:40;1.50;;;1.40;;
8737;SDS011;4405;49.272;8.590;2023-07-13T13:13:06;1.73;;;1.50;;
8737;SDS011;4405;49.272;8.590;2023-07-13T13:15:33;1.60;;;1.50;;
8737;SDS011;4405;49.272;8.590;2023-07-13T13:18:01;3.07;;;1.50;;
8737;SDS011;4405;49.272;8.590;2023-07-13T13:20:27;2.40;;;1.43;;
8737;SDS011;4405;49.272;8.590;2023-07-13T13:22:53;1.67;;;1.30;;
8737;SDS011;4405;49.272;8.590;2023-07-13T13:25:20;1.47;;;1.37;;
8737;SDS011;4405;49.272;8.590;2023-07-13T13:27:48;1.50;;;1.50;;
8737;SDS011;4405;49.272;8.590;2023-07-13T13:30:17;1.70;;;1.60;;
8737;SDS011;4405;49.272;8.590;2023-07-13T13:32:44;1.90;;;1.70;;
8737;SDS011;4405;49.272;8.590;2023-07-13T13:35:12;1.70;;;1.60;;
8737;SDS011;4405;49.272;8.590;2023-07-13T13:37:39;2.57;;;1.40;;
8737;SDS011;4405;49.272;8.590;2023-07-13T13:40:13;2.00;;;1.43;;
8737;SDS011;4405;49.272;8.590;2023-07-13T13:42:39;1.93;;;1.70;;
8737;SDS011;4405;49.272;8.590;2023-07-13T13:45:08;1.40;;;1.30;;
8737;SDS011;4405;49.272;8.590;2023-07-13T13:47:35;3.23;;;1.50;;
8737;SDS011;4405;49.272;8.590;2023-07-13T13:50:04;3.07;;;1.50;;
8737;SDS011;4405;49.272;8.590;2023-07-13T13:52:36;2.50;;;1.50;;
8737;SDS011;4405;49.272;8.590;2023-07-13T13:55:05;1.63;;;1.53;;
8737;SDS011;4405;49.272;8.590;2023-07-13T13:57:31;2.23;;;1.30;;
8737;SDS011;4405;49.272;8.590;2023-07-13T13:59:58;3.60;;;1.50;;
8737;SDS011;4405;49.272;8.590;2023-07-13T14:02:26;1.53;;;1.43;;
8737;SDS011;4405;49.272;8.590;2023-07-13T14:04:54;3.27;;;1.50;;
8737;SDS011;4405;49.272;8.590;2023-07-13T14:07:21;4.37;;;1.63;;
8737;SDS011;4405;49.272;8.590;2023-07-13T14:09:47;3.93;;;1.50;;
8737;SDS011;4405;49.272;8.590;2023-07-13T14:12:14;4.70;;;1.60;;
8737;SDS011;4405;49.272;8.590;2023-07-13T14:14:40;1.37;;;1.27;;
8737;SDS011;4405;49.272;8.590;2023-07-13T14:17:09;1.50;;;1.40;;
8737;SDS011;4405;49.272;8.590;2023-07-13T14:19:43;1.20;;;1.20;;
8737;SDS011;4405;49.272;8.590;2023-07-13T14:22:10;2.63;;;1.67;;
8737;SDS011;4405;49.272;8.590;2023-07-13T14:24:36;2.53;;;1.20;;
8737;SDS011;4405;49.272;8.590;2023-07-13T14:27:03;4.53;;;1.40;;
8737;SDS011;4405;49.272;8.590;2023-07-13T14:29:29;1.90;;;1.67;;
8737;SDS011;4405;49.272;8.590;2023-07-13T14:31:57;2.93;;;1.37;;
8737;SDS011;4405;49.272;8.590;2023-07-13T14:34:23;3.33;;;1.40;;
8737;SDS011;4405;49.272;8.590;2023-07-13T14:36:51;1.83;;;1.70;;
8737;SDS011;4405;49.272;8.590;2023-07-13T14:39:18;3.03;;;1.80;;
8737;SDS011;4405;49.272;8.590;2023-07-13T14:41:45;3.23;;;1.50;;
8737;SDS011;4405;49.272;8.590;2023-07-13T14:44:11;2.13;;;1.63;;
8737;SDS011;4405;49.272;8.590;2023-07-13T14:46:38;2.00;;;1.60;;
8737;SDS011;4405;49.272;8.590;2023-07-13T14:49:06;1.50;;;1.40;;
8737;SDS011;4405;49.272;8.590;2023-07-13T14:51:32;1.30;;;1.30;;
8737;SDS011;4405;49.272;8.590;2023-07-13T14:54:02;1.83;;;1.40;;
8737;SDS011;4405;49.272;8.590;2023-07-13T14:56:29;2.47;;;1.60;;
8737;SDS011;4405;49.272;8.590;2023-07-13T14:58:55;2.83;;;1.57;;
8737;SDS011;4405;49.272;8.590;2023-07-13T15:01:22;2.20;;;1.50;;
8737;SDS011;4405;49.272;8.590;2023-07-13T15:03:49;2.43;;;1.60;;
8737;SDS011;4405;49.272;8.590;2023-07-13T15:06:16;1.73;;;1.63;;
8737;SDS011;4405;49.272;8.590;2023-07-13T15:08:44;1.80;;;1.70;;
8737;SDS011;4405;49.272;8.590;2023-07-13T15:11:12;2.30;;;1.83;;
8737;SDS011;4405;49.272;8.590;2023-07-13T15:13:38;2.20;;;1.73;;
8737;SDS011;4405;49.272;8.590;2023-07-13T15:16:09;3.87;;;1.80;;
8737;SDS011;4405;49.272;8.590;2023-07-13T15:18:37;1.60;;;1.50;;
8737;SDS011;4405;49.272;8.590;2023-07-13T15:21:07;3.47;;;1.77;;
8737;SDS011;4405;49.272;8.590;2023-07-13T15:23:34;1.50;;;1.40;;
8737;SDS011;4405;49.272;8.590;2023-07-13T15:26:00;1.93;;;1.47;;